Time;durP1;ratioP1;P1;durP2;ratioP2;P2;SDS_P1;SDS_P2;PMS_P1;PMS_P2;Temp;Humidity;BMP_temperature;BMP_pressure;BME280_temperature;BME280_humidity;BME280_pressure;Samples;Min_cycle;Max_cycle;Signal;HPM_P1;HPM_P2
2022/09/29 00:00:21;;;;;;;10.07;5.10;;;;;;;9.27;100.00;97244.66;4317057;33;20070;-71
2022/09/29 00:03:08;;;;;;;7.12;5.68;;;;;;;9.40;100.00;97245.06;4322571;33;20052;-71
2022/09/29 00:05:34;;;;;;;8.75;4.50;;;;;;;9.38;100.00;97274.91;4319844;33;20037;-71
2022/09/29 00:08:01;;;;;;;9.70;5.55;;;;;;;9.18;100.00;97269.72;4309127;33;20102;-71
2022/09/29 00:10:27;;;;;;;8.63;5.53;;;;;;;9.28;100.00;97275.00;4308416;33;20335;-72
2022/09/29 00:12:53;;;;;;;6.82;5.15;;;;;;;9.22;100.00;97238.53;4308854;33;20040;-71
2022/09/29 00:15:20;;;;;;;8.15;5.47;;;;;;;9.30;100.00;97288.94;4344709;32;20081;-71
2022/09/29 00:17:46;;;;;;;6.43;4.75;;;;;;;9.08;100.00;97243.78;4345676;32;20464;-71
2022/09/29 00:20:12;;;;;;;6.45;4.78;;;;;;;9.13;100.00;97251.00;4338387;33;20566;-71
2022/09/29 00:22:39;;;;;;;8.70;5.22;;;;;;;8.84;100.00;97265.19;4344738;33;20040;-72
2022/09/29 00:25:05;;;;;;;8.52;5.37;;;;;;;9.56;100.00;97299.44;4350802;32;20071;-71
2022/09/29 00:27:32;;;;;;;6.43;4.75;;;;;;;9.07;100.00;97302.03;4382352;32;20039;-71
2022/09/29 00:29:59;;;;;;;6.37;5.03;;;;;;;9.25;100.00;97294.34;4382918;32;20080;-71
2022/09/29 00:32:25;;;;;;;7.12;4.18;;;;;;;9.22;100.00;97311.03;4393823;32;20039;-71
2022/09/29 00:34:51;;;;;;;7.55;4.72;;;;;;;9.16;100.00;97255.78;4394223;32;20031;-74
2022/09/29 00:37:18;;;;;;;9.23;5.35;;;;;;;8.56;100.00;97253.34;4382444;32;20051;-70
2022/09/29 00:39:52;;;;;;;5.85;4.82;;;;;;;8.72;100.00;97301.25;4383109;32;20079;-71
2022/09/29 00:42:19;;;;;;;7.43;5.07;;;;;;;8.84;100.00;97260.62;4382990;32;20043;-70
2022/09/29 00:44:53;;;;;;;6.32;4.55;;;;;;;8.65;100.00;97262.41;4391785;32;20047;-71
2022/09/29 00:47:22;;;;;;;5.47;4.45;;;;;;;8.77;100.00;97278.13;4398205;32;20520;-70
2022/09/29 00:49:55;;;;;;;9.07;5.20;;;;;;;8.48;100.00;97303.03;4397002;32;20022;-70
2022/09/29 00:52:30;;;;;;;6.93;4.65;;;;;;;8.59;100.00;97334.06;4397058;32;20100;-72
2022/09/29 00:55:09;;;;;;;6.18;4.93;;;;;;;8.85;100.00;97317.78;4394370;32;20047;-71
2022/09/29 00:57:43;;;;;;;8.13;4.87;;;;;;;8.67;100.00;97320.06;4382932;32;20063;-71
2022/09/29 01:00:13;;;;;;;15.85;5.22;;;;;;;8.35;100.00;97307.91;4393560;32;20030;-71
2022/09/29 01:02:45;;;;;;;8.70;5.45;;;;;;;8.32;100.00;97319.16;4406916;32;20054;-70
2022/09/29 01:05:17;;;;;;;6.57;5.05;;;;;;;8.35;100.00;97318.63;4414751;32;20081;-70
2022/09/29 01:07:44;;;;;;;;;;;;;;;8.57;100.00;97346.97;4419303;32;20064;-72
2022/09/29 01:10:15;;;;;;;6.05;4.68;;;;;;;8.69;100.00;97350.09;4429831;32;19934;-71
2022/09/29 01:12:45;;;;;;;9.05;5.12;;;;;;;8.42;100.00;97304.09;4424809;32;20418;-71
2022/09/29 01:15:15;;;;;;;8.70;5.55;;;;;;;8.40;100.00;97298.22;4429318;32;20367;-71
2022/09/29 01:17:41;;;;;;;7.25;5.20;;;;;;;8.81;100.00;97340.91;4381923;32;20039;-71
2022/09/29 01:20:14;;;;;;;7.18;5.57;;;;;;;8.79;100.00;97326.94;4367822;32;20057;-70
2022/09/29 01:23:20;;;;;;;7.22;5.57;;;;;;;8.49;100.00;97301.97;4367992;32;20519;-71
2022/09/29 01:26:11;;;;;;;8.60;5.28;;;;;;;8.57;100.00;97314.78;4367562;32;20051;-70
2022/09/29 01:28:50;;;;;;;13.38;5.70;;;;;;;8.66;100.00;97317.66;4338399;33;20039;-70
2022/09/29 01:31:28;;;;;;;8.43;5.97;;;;;;;8.82;100.00;97350.56;4347209;33;20078;-70
2022/09/29 01:34:08;;;;;;;7.35;5.87;;;;;;;8.61;100.00;97358.72;4352444;33;20112;-70
2022/09/29 01:36:50;;;;;;;9.30;6.37;;;;;;;8.55;100.00;97354.47;4350216;33;20028;-71
2022/09/29 01:39:39;;;;;;;14.02;5.75;;;;;;;8.59;100.00;97339.44;4353045;33;20063;-71
2022/09/29 01:42:22;;;;;;;7.85;6.32;;;;;;;8.99;100.00;97359.03;4350771;33;20445;-70
2022/09/29 01:44:54;;;;;;;10.35;7.05;;;;;;;8.66;100.00;97310.44;4351836;33;20447;-71
2022/09/29 01:47:40;;;;;;;9.50;6.37;;;;;;;8.82;100.00;97361.28;4351461;33;20025;-71
2022/09/29 01:50:13;;;;;;;8.57;6.20;;;;;;;8.98;100.00;97351.25;4384229;32;20066;-70
2022/09/29 01:52:45;;;;;;;10.55;6.70;;;;;;;9.07;100.00;97353.03;4395969;32;20035;-71
2022/09/29 01:55:19;;;;;;;9.45;6.70;;;;;;;8.99;100.00;97304.53;4397554;32;20129;-70
2022/09/29 01:57:49;;;;;;;10.80;7.43;;;;;;;8.61;100.00;97315.81;4396216;32;20035;-71
2022/09/29 02:00:19;;;;;;;11.52;6.25;;;;;;;9.10;100.00;97359.75;4372802;32;20389;-71
2022/09/29 02:03:00;;;;;;;8.77;6.28;;;;;;;9.07;100.00;97342.31;4351593;33;20047;-71
2022/09/29 02:05:42;;;;;;;7.55;6.28;;;;;;;8.56;100.00;97318.53;4351309;33;20054;-71
2022/09/29 02:08:15;;;;;;;;;;;;;;;8.89;100.00;97321.53;4339629;33;20054;-71
2022/09/29 02:10:48;;;;;;;;;;;;;;;9.12;100.00;97367.53;4344602;33;20064;-71
2022/09/29 02:13:17;;;;;;;8.90;5.87;;;;;;;8.83;100.00;97365.59;4351681;33;19945;-71
2022/09/29 02:15:46;;;;;;;11.52;6.80;;;;;;;8.70;100.00;97375.06;4314399;33;20044;-71
2022/09/29 02:18:20;;;;;;;7.65;6.37;;;;;;;8.26;100.00;97314.91;4308715;33;20049;-71
2022/09/29 02:20:48;;;;;;;10.57;6.25;;;;;;;8.61;100.00;97390.94;4319264;33;20045;-73
2022/09/29 02:23:15;;;;;;;13.27;6.53;;;;;;;8.80;100.00;97388.41;4323393;33;20058;-71
2022/09/29 02:25:43;;;;;;;9.95;6.97;;;;;;;8.39;100.00;97329.59;4325485;33;20410;-71
2022/09/29 02:28:10;;;;;;;9.85;6.30;;;;;;;8.59;100.00;97328.69;4325327;33;20039;-70
2022/09/29 02:30:36;;;;;;;10.15;7.32;;;;;;;8.23;100.00;97338.78;4324932;33;20036;-70
2022/09/29 02:33:03;;;;;;;10.50;6.75;;;;;;;8.73;100.00;97367.25;4341890;32;20035;-73
2022/09/29 02:35:56;;;;;;;11.85;7.15;;;;;;;8.67;100.00;97379.09;4370088;32;20057;-70
2022/09/29 02:38:43;;;;;;;12.43;6.57;;;;;;;8.31;100.00;97387.31;4375028;32;20096;-71
2022/09/29 02:41:15;;;;;;;9.95;6.45;;;;;;;8.23;100.00;97346.84;4384895;32;20113;-69
2022/09/29 02:44:01;;;;;;;10.27;6.72;;;;;;;8.49;100.00;97387.78;4384997;32;20485;-70
2022/09/29 02:46:28;;;;;;;10.85;6.90;;;;;;;7.82;100.00;97304.94;4387867;32;20084;-71
2022/09/29 02:48:57;;;;;;;12.95;7.90;;;;;;;8.64;100.00;97395.75;4405816;32;20706;-70
2022/09/29 02:51:31;;;;;;;14.07;6.80;;;;;;;8.56;100.00;97393.63;4417077;32;20337;-70
2022/09/29 02:54:09;;;;;;;10.68;7.53;;;;;;;8.59;100.00;97393.09;4425909;32;20042;-72
2022/09/29 02:56:57;;;;;;;11.45;7.62;;;;;;;8.46;100.00;97401.75;4431585;32;20039;-71
2022/09/29 03:00:08;;;;;;;9.90;6.70;;;;;;;8.75;100.00;97409.13;4432223;32;20115;-71
2022/09/29 03:02:39;;;;;;;9.98;6.93;;;;;;;8.60;100.00;97405.44;4419595;32;20060;-70
2022/09/29 03:05:17;;;;;;;16.80;7.45;;;;;;;8.05;100.00;97367.03;4426268;32;20383;-71
2022/09/29 03:07:43;;;;;;;10.90;8.02;;;;;;;8.29;100.00;97402.84;4432306;32;20935;-70
2022/09/29 03:10:13;;;;;;;11.65;7.10;;;;;;;8.49;100.00;97382.44;4432160;32;20042;-70
2022/09/29 03:12:39;;;;;;;10.68;7.10;;;;;;;8.26;100.00;97400.72;4432351;32;20042;-71
2022/09/29 03:15:07;;;;;;;10.30;7.40;;;;;;;8.14;100.00;97368.06;4429299;32;20075;-74
2022/09/29 03:17:34;;;;;;;10.52;6.93;;;;;;;8.42;100.00;97393.41;4432142;32;20448;-70
2022/09/29 03:20:00;;;;;;;10.65;6.93;;;;;;;8.11;100.00;97365.94;4431476;32;20046;-71
2022/09/29 03:22:33;;;;;;;10.60;7.10;;;;;;;8.13;100.00;97377.19;4432190;32;20029;-71
2022/09/29 03:25:00;;;;;;;11.10;7.25;;;;;;;8.07;100.00;97373.69;4430372;32;20394;-74
2022/09/29 03:27:26;;;;;;;13.75;7.93;;;;;;;8.04;100.00;97382.31;4417968;32;20448;-72
2022/09/29 03:29:52;;;;;;;19.15;7.75;;;;;;;8.42;100.00;97408.69;4387326;32;20027;-71
2022/09/29 03:32:19;;;;;;;9.57;7.35;;;;;;;8.03;100.00;97396.00;4399640;32;20056;-71
2022/09/29 03:34:45;;;;;;;11.23;8.23;;;;;;;8.08;100.00;97393.28;4398799;32;20064;-71
2022/09/29 03:37:11;;;;;;;12.65;8.88;;;;;;;8.36;100.00;97387.28;4396938;32;20079;-71
2022/09/29 03:39:38;;;;;;;10.82;7.87;;;;;;;8.85;100.00;97427.84;4389051;32;21042;-71
2022/09/29 03:42:05;;;;;;;21.35;8.18;;;;;;;8.41;100.00;97396.34;4384084;32;20151;-71
2022/09/29 03:44:31;;;;;;;13.62;7.60;;;;;;;8.50;100.00;97430.44;4383672;32;20031;-70
2022/09/29 03:46:57;;;;;;;13.93;8.52;;;;;;;8.39;100.00;97441.44;4395334;32;20061;-73
2022/09/29 03:49:24;;;;;;;14.45;8.05;;;;;;;8.44;100.00;97436.06;4397178;32;20055;-73
2022/09/29 03:51:51;;;;;;;11.90;8.48;;;;;;;8.25;100.00;97431.31;4391138;32;20031;-70
2022/09/29 03:54:18;;;;;;;13.18;8.30;;;;;;;8.36;100.00;97440.91;4383729;32;20061;-71
2022/09/29 03:56:44;;;;;;;14.32;8.13;;;;;;;8.60;100.00;97443.00;4393024;32;20057;-71
2022/09/29 03:59:11;;;;;;;19.55;10.07;;;;;;;8.49;100.00;97388.59;4380050;32;20046;-74
2022/09/29 04:01:38;;;;;;;12.32;7.93;;;;;;;8.45;100.00;97440.37;4394815;32;20046;-71
2022/09/29 04:04:05;;;;;;;14.40;8.45;;;;;;;8.19;100.00;97445.81;4399180;32;20057;-72
2022/09/29 04:06:32;;;;;;;13.55;9.10;;;;;;;7.52;100.00;97317.34;4398546;32;20517;-71
2022/09/29 04:08:58;;;;;;;14.43;8.40;;;;;;;8.46;100.00;97382.97;4412533;32;20042;-71
2022/09/29 04:11:24;;;;;;;16.75;9.27;;;;;;;8.46;100.00;97429.38;4410977;32;20063;-71
2022/09/29 04:13:51;;;;;;;14.07;8.77;;;;;;;8.28;100.00;97387.84;4408609;32;20043;-71
2022/09/29 04:16:17;;;;;;;13.10;8.82;;;;;;;8.52;100.00;97424.78;4407738;32;20068;-71
2022/09/29 04:18:44;;;;;;;12.77;8.60;;;;;;;8.50;100.00;97426.94;4413884;32;20042;-72
2022/09/29 04:21:16;;;;;;;10.88;8.15;;;;;;;8.62;100.00;97435.47;4410826;32;20030;-71
2022/09/29 04:23:50;;;;;;;16.00;9.60;;;;;;;8.58;100.00;97391.47;4413734;32;20038;-71
2022/09/29 04:26:19;;;;;;;13.05;9.27;;;;;;;8.50;100.00;97398.25;4413393;32;20318;-71
2022/09/29 04:28:45;;;;;;;14.45;9.10;;;;;;;8.50;100.00;97448.37;4413365;32;20027;-71
2022/09/29 04:31:12;;;;;;;13.27;9.20;;;;;;;8.39;100.00;97398.53;4410470;32;20060;-74
2022/09/29 04:33:39;;;;;;;13.52;8.93;;;;;;;8.08;100.00;97430.81;4398448;32;20088;-72
2022/09/29 04:36:05;;;;;;;15.63;9.60;;;;;;;8.52;100.00;97446.22;4399589;32;20154;-71
2022/09/29 04:38:32;;;;;;;15.88;9.82;;;;;;;8.26;100.00;97403.41;4404215;32;20103;-75
2022/09/29 04:40:58;;;;;;;16.05;10.27;;;;;;;8.56;100.00;97438.47;4415142;32;20426;-72
2022/09/29 04:43:25;;;;;;;14.82;9.90;;;;;;;8.48;100.00;97395.00;4414375;32;20493;-73
2022/09/29 04:45:51;;;;;;;13.18;9.30;;;;;;;8.85;100.00;97457.34;4425192;32;20183;-73
2022/09/29 04:48:18;;;;;;;14.50;8.27;;;;;;;8.65;100.00;97418.81;4429035;32;20068;-73
2022/09/29 04:50:44;;;;;;;14.10;8.68;;;;;;;8.40;100.00;97480.59;4430688;32;20033;-71
2022/09/29 04:53:11;;;;;;;15.13;8.90;;;;;;;7.96;100.00;97471.31;4431463;32;20042;-71
2022/09/29 04:55:38;;;;;;;17.98;9.38;;;;;;;7.99;100.00;97479.63;4428730;32;20063;-74
2022/09/29 04:58:04;;;;;;;16.83;10.90;;;;;;;8.46;100.00;97485.69;4430703;32;20488;-72
2022/09/29 05:00:31;;;;;;;27.33;11.10;;;;;;;8.59;100.00;97495.03;4412599;32;20038;-72
2022/09/29 05:02:59;;;;;;;21.33;10.98;;;;;;;8.37;100.00;97498.81;4409922;32;20219;-72
2022/09/29 05:05:25;;;;;;;26.15;10.75;;;;;;;8.60;100.00;97491.28;4412514;32;20023;-76
2022/09/29 05:07:51;;;;;;;15.27;10.43;;;;;;;8.34;100.00;97488.66;4412196;32;20077;-72
2022/09/29 05:10:18;;;;;;;15.93;9.68;;;;;;;8.30;100.00;97492.97;4398079;32;20060;-71
2022/09/29 05:12:51;;;;;;;15.57;9.57;;;;;;;8.37;100.00;97482.72;4368142;32;20162;-73
2022/09/29 05:15:18;;;;;;;17.15;10.02;;;;;;;8.54;100.00;97492.38;4367111;32;20515;-73
2022/09/29 05:17:45;;;;;;;17.80;10.50;;;;;;;8.18;100.00;97446.88;4366095;32;20377;-73
2022/09/29 05:20:12;;;;;;;15.73;9.73;;;;;;;8.54;100.00;97457.50;4369726;32;20919;-73
2022/09/29 05:22:38;;;;;;;12.85;8.68;;;;;;;8.19;100.00;97459.19;4363864;32;20056;-72
2022/09/29 05:25:07;;;;;;;15.55;9.10;;;;;;;7.83;100.00;97451.22;4353092;33;20028;-73
2022/09/29 05:27:36;;;;;;;12.10;7.93;;;;;;;8.20;100.00;97460.81;4357073;32;20117;-74
2022/09/29 05:30:04;;;;;;;14.23;8.27;;;;;;;8.10;100.00;97503.72;4367163;32;20063;-72
2022/09/29 05:32:30;;;;;;;14.80;7.43;;;;;;;8.13;100.00;97508.53;4354920;32;20059;-71
2022/09/29 05:34:56;;;;;;;10.55;7.35;;;;;;;7.88;100.00;97463.81;4352616;32;20343;-72
2022/09/29 05:37:23;;;;;;;14.23;8.15;;;;;;;8.19;100.00;97513.63;4352313;33;20500;-75
2022/09/29 05:39:49;;;;;;;11.77;7.93;;;;;;;8.57;100.00;97507.94;4320329;33;20075;-71
2022/09/29 05:42:16;;;;;;;12.60;8.43;;;;;;;8.39;100.00;97495.88;4322733;33;20066;-72
2022/09/29 05:44:42;;;;;;;13.40;8.20;;;;;;;8.64;100.00;97492.34;4347042;33;20078;-76
2022/09/29 05:47:09;;;;;;;15.63;8.93;;;;;;;8.73;100.00;97503.31;4353006;33;20432;-75
2022/09/29 05:49:35;;;;;;;12.23;8.25;;;;;;;9.00;100.00;97521.72;4350469;33;20032;-75
2022/09/29 05:52:02;;;;;;;15.43;8.20;;;;;;;8.23;100.00;97460.25;4352799;32;20079;-71
2022/09/29 05:54:28;;;;;;;17.40;9.45;;;;;;;8.05;100.00;97442.09;4350054;32;20077;-75
2022/09/29 05:56:55;;;;;;;10.93;7.25;;;;;;;8.47;100.00;97507.94;4355654;32;20513;-72
2022/09/29 05:59:22;;;;;;;10.95;8.23;;;;;;;8.39;100.00;97516.53;4353663;32;20035;-71
2022/09/29 06:01:48;;;;;;;9.57;6.85;;;;;;;8.10;100.00;97472.34;4354077;32;20024;-77
2022/09/29 06:04:16;;;;;;;15.13;8.43;;;;;;;8.90;100.00;97516.37;4353564;32;20081;-73
2022/09/29 06:06:42;;;;;;;15.05;9.00;;;;;;;8.85;100.00;97511.81;4321340;33;20082;-73
2022/09/29 06:09:09;;;;;;;13.95;8.75;;;;;;;8.88;100.00;97518.53;4325576;33;20036;-73
2022/09/29 06:11:35;;;;;;;14.40;8.95;;;;;;;8.75;100.00;97530.66;4348841;32;20057;-72
2022/09/29 06:14:02;;;;;;;19.25;11.10;;;;;;;8.11;100.00;97446.34;4353779;32;20466;-75
2022/09/29 06:16:30;;;;;;;19.92;10.10;;;;;;;8.72;100.00;97525.84;4353799;32;20035;-70
2022/09/29 06:19:01;;;;;;;19.20;11.48;;;;;;;8.71;100.00;97521.53;4354994;32;20039;-72
2022/09/29 06:21:30;;;;;;;19.52;11.73;;;;;;;9.07;100.00;97532.94;4349337;32;20118;-71
2022/09/29 06:23:57;;;;;;;19.12;11.05;;;;;;;8.71;100.00;97482.12;4366208;32;20050;-74
2022/09/29 06:26:25;;;;;;;18.62;11.40;;;;;;;8.95;100.00;97527.09;4359963;32;20053;-71
2022/09/29 06:28:52;;;;;;;16.10;11.65;;;;;;;8.80;100.00;97549.44;4339892;33;20374;-72
2022/09/29 06:31:22;;;;;;;15.13;9.00;;;;;;;8.43;100.00;97454.06;4338541;32;20070;-72
2022/09/29 06:33:49;;;;;;;13.73;8.10;;;;;;;8.69;100.00;97516.44;4339085;33;20044;-72
2022/09/29 06:39:09;;;;;;;15.95;8.88;;;;;;;9.31;100.00;97558.34;4368520;32;20043;-72
2022/09/29 06:41:35;;;;;;;21.75;10.25;;;;;;;9.23;100.00;97516.75;4370238;32;20043;-76
2022/09/29 06:44:02;;;;;;;15.52;9.02;;;;;;;9.62;100.00;97554.37;4366942;32;20401;-73
2022/09/29 06:46:29;;;;;;;11.00;7.40;;;;;;;9.36;100.00;97542.97;4368850;32;20061;-71
2022/09/29 06:48:56;;;;;;;21.48;12.20;;;;;;;8.92;100.00;97519.59;4369280;32;20051;-72
2022/09/29 06:51:23;;;;;;;13.38;8.43;;;;;;;9.11;100.00;97546.63;4369223;32;20090;-71
2022/09/29 06:53:50;;;;;;;16.40;9.63;;;;;;;8.83;100.00;97551.56;4352963;32;20087;-71
2022/09/29 06:56:17;;;;;;;23.10;13.38;;;;;;;8.73;100.00;97512.16;4354123;32;20059;-71
2022/09/29 06:58:45;;;;;;;25.27;13.48;;;;;;;8.97;100.00;97543.72;4354152;32;20031;-71
2022/09/29 07:01:17;;;;;;;18.37;10.82;;;;;;;8.76;100.00;97499.25;4352771;32;20058;-72
2022/09/29 07:03:44;;;;;;;31.15;15.77;;;;;;;8.97;100.00;97508.84;4351841;32;20028;-70
2022/09/29 07:06:10;;;;;;;36.08;18.25;;;;;;;9.13;100.00;97551.72;4360155;32;20972;-72
2022/09/29 07:08:38;;;;;;;28.87;16.83;;;;;;;9.28;100.00;97511.34;4363172;32;20089;-70
2022/09/29 07:11:08;;;;;;;15.05;9.68;;;;;;;9.58;100.00;97557.91;4379469;32;20039;-72
2022/09/29 07:13:35;;;;;;;16.05;9.95;;;;;;;9.93;100.00;97547.97;4377160;32;20117;-74
2022/09/29 07:16:06;;;;;;;14.18;9.38;;;;;;;9.61;100.00;97514.34;4400732;32;20452;-71
2022/09/29 07:18:37;;;;;;;19.40;9.07;;;;;;;9.51;100.00;97552.03;4413424;32;20074;-71
2022/09/29 07:21:05;;;;;;;14.63;9.55;;;;;;;9.50;100.00;97563.88;4405596;32;20043;-74
2022/09/29 07:23:32;;;;;;;17.20;10.25;;;;;;;9.43;100.00;97491.66;4398365;32;20411;-72
2022/09/29 07:25:58;;;;;;;25.48;12.50;;;;;;;10.06;100.00;97558.06;4408610;32;20038;-73
2022/09/29 07:28:26;;;;;;;18.05;9.30;;;;;;;10.08;100.00;97545.13;4384806;32;20042;-73
2022/09/29 07:31:10;;;;;;;13.27;9.48;;;;;;;10.02;100.00;97535.53;4390148;32;20043;-72
2022/09/29 07:33:36;;;;;;;17.23;10.10;;;;;;;10.18;100.00;97577.34;4387493;32;20410;-71
2022/09/29 07:36:04;;;;;;;17.85;10.55;;;;;;;9.47;100.00;97502.63;4390948;32;20394;-72
2022/09/29 07:38:31;;;;;;;26.45;12.93;;;;;;;9.62;100.00;97546.31;4384245;32;20105;-73
2022/09/29 07:41:00;;;;;;;21.40;10.73;;;;;;;9.91;100.00;97544.78;4389073;32;20056;-73
2022/09/29 07:43:27;;;;;;;17.45;10.70;;;;;;;9.31;100.00;97548.38;4407551;32;20083;-72
2022/09/29 07:45:53;;;;;;;22.02;10.63;;;;;;;9.75;100.00;97542.19;4394282;32;20173;-73
2022/09/29 07:48:21;;;;;;;14.52;9.32;;;;;;;9.60;100.00;97561.09;4393383;32;20044;-72
2022/09/29 07:50:48;;;;;;;15.60;9.93;;;;;;;9.84;100.00;97596.16;4349228;32;20043;-74
2022/09/29 07:53:21;;;;;;;15.85;10.57;;;;;;;10.07;100.00;97575.81;4342708;32;20056;-72
2022/09/29 07:55:48;;;;;;;13.77;10.13;;;;;;;10.10;100.00;97604.00;4338028;32;20078;-72
2022/09/29 07:58:14;;;;;;;17.30;11.20;;;;;;;9.56;100.00;97608.44;4351294;32;20036;-72
2022/09/29 08:00:41;;;;;;;13.40;9.38;;;;;;;9.52;100.00;97602.00;4350073;32;20221;-73
2022/09/29 08:03:09;;;;;;;15.98;10.25;;;;;;;9.47;100.00;97567.09;4351393;32;20051;-72
2022/09/29 08:05:35;;;;;;;16.50;10.10;;;;;;;9.82;100.00;97623.31;4350452;32;20032;-73
2022/09/29 08:08:04;;;;;;;17.00;10.13;;;;;;;9.69;100.00;97583.63;4353018;32;20093;-72
2022/09/29 08:10:32;;;;;;;13.30;9.35;;;;;;;9.93;100.00;97631.31;4352007;32;20407;-71
2022/09/29 08:12:59;;;;;;;14.25;9.40;;;;;;;9.78;100.00;97610.69;4352507;32;20032;-72
2022/09/29 08:15:25;;;;;;;14.82;9.27;;;;;;;10.17;100.00;97608.00;4349021;32;20117;-75
2022/09/29 08:17:53;;;;;;;13.93;9.70;;;;;;;10.27;100.00;97584.78;4371259;32;20086;-72
2022/09/29 08:20:25;;;;;;;14.23;8.90;;;;;;;9.71;100.00;97546.50;4379642;32;20174;-72
2022/09/29 08:22:54;;;;;;;12.52;9.10;;;;;;;9.81;100.00;97635.16;4424232;32;20081;-71
2022/09/29 08:25:21;;;;;;;13.13;8.95;;;;;;;9.59;100.00;97594.44;4426402;32;20477;-69
2022/09/29 08:27:47;;;;;;;14.38;10.30;;;;;;;9.50;100.00;97604.16;4426078;32;20438;-73
2022/09/29 08:30:14;;;;;;;12.73;9.75;;;;;;;10.28;100.00;97634.81;4426796;32;20079;-73
2022/09/29 08:32:41;;;;;;;14.80;10.18;;;;;;;10.27;100.00;97598.22;4428208;32;20059;-73
2022/09/29 08:35:08;;;;;;;16.35;10.20;;;;;;;10.51;100.00;97596.44;4426495;32;20403;-73
2022/09/29 08:37:35;;;;;;;11.88;8.68;;;;;;;10.47;100.00;97595.41;4428007;32;20038;-71
2022/09/29 08:40:01;;;;;;;13.82;10.05;;;;;;;10.27;100.00;97638.59;4429964;32;20034;-71
2022/09/29 08:42:39;;;;;;;18.02;10.18;;;;;;;10.77;100.00;97630.34;4397882;32;20419;-71
2022/09/29 08:45:13;;;;;;;16.98;9.75;;;;;;;10.75;100.00;97606.41;4395527;32;20047;-71
2022/09/29 08:47:44;;;;;;;15.77;9.23;;;;;;;10.47;100.00;97568.47;4395679;32;20122;-72
2022/09/29 08:50:11;;;;;;;18.12;8.40;;;;;;;10.69;100.00;97634.47;4393274;32;20085;-71
2022/09/29 08:52:40;;;;;;;15.98;7.95;;;;;;;10.31;100.00;97650.41;4397642;32;20061;-70
2022/09/29 08:55:15;;;;;;;10.60;7.78;;;;;;;10.41;100.00;97644.97;4397170;32;20052;-70
2022/09/29 08:57:46;;;;;;;10.77;7.70;;;;;;;10.77;100.00;97604.25;4391566;32;20082;-71
2022/09/29 09:00:15;;;;;;;9.77;7.28;;;;;;;10.27;100.00;97595.53;4394947;32;20796;-70
2022/09/29 09:02:54;;;;;;;12.70;7.97;;;;;;;10.26;100.00;97604.69;4397119;32;20099;-70
2022/09/29 09:05:40;;;;;;;11.52;8.15;;;;;;;10.74;100.00;97647.91;4393272;32;20095;-74
2022/09/29 09:08:19;;;;;;;10.20;7.25;;;;;;;11.08;100.00;97647.00;4386532;32;20455;-72
2022/09/29 09:10:55;;;;;;;12.63;7.30;;;;;;;10.47;100.00;97606.16;4388355;32;20051;-71
2022/09/29 09:13:58;;;;;;;10.65;7.65;;;;;;;10.13;100.00;97615.03;4405459;32;20027;-70
2022/09/29 09:16:37;;;;;;;13.07;7.78;;;;;;;10.70;100.00;97654.94;4428507;32;20469;-75
2022/09/29 09:19:17;;;;;;;11.27;8.52;;;;;;;10.78;100.00;97657.00;4425808;32;20077;-73
2022/09/29 09:21:57;;;;;;;11.40;7.45;;;;;;;10.88;100.00;97665.00;4425739;32;20072;-72
2022/09/29 09:24:58;;;;;;;10.68;6.32;;;;;;;10.72;100.00;97609.66;4422435;32;20070;-73
2022/09/29 09:27:36;;;;;;;10.30;6.37;;;;;;;11.12;100.00;97653.44;4392792;32;20042;-72
2022/09/29 09:30:12;;;;;;;10.43;6.40;;;;;;;11.60;100.00;97653.37;4399217;32;20084;-72
2022/09/29 09:32:48;;;;;;;12.23;7.15;;;;;;;11.30;100.00;97616.84;4399577;32;20035;-73
2022/09/29 09:35:50;;;;;;;9.57;6.37;;;;;;;11.91;100.00;97623.28;4399813;32;20035;-75
2022/09/29 09:38:40;;;;;;;10.52;6.85;;;;;;;12.72;100.00;97660.84;4325683;33;20054;-74
2022/09/29 09:41:08;;;;;;;6.03;5.18;;;;;;;12.51;100.00;97667.72;4325067;33;20095;-72
2022/09/29 09:43:44;;;;;;;5.37;4.25;;;;;;;11.99;100.00;97676.59;4325946;33;20044;-71
2022/09/29 09:46:22;;;;;;;5.12;4.62;;;;;;;11.58;100.00;97635.88;4310120;33;20048;-72
2022/09/29 09:49:16;;;;;;;5.05;4.35;;;;;;;12.06;100.00;97637.66;4311012;33;20078;-73
2022/09/29 09:51:59;;;;;;;4.90;3.90;;;;;;;11.70;100.00;97663.22;4311342;33;20077;-71
2022/09/29 09:55:19;;;;;;;13.60;8.60;;;;;;;11.22;100.00;97645.22;4311058;33;20074;-72
2022/09/29 09:58:10;;;;;;;6.25;4.57;;;;;;;12.17;100.00;97682.25;4266039;33;20050;-72
2022/09/29 10:00:55;;;;;;;5.40;4.00;;;;;;;11.59;100.00;97694.88;4267818;33;20384;-75
2022/09/29 10:03:21;;;;;;;6.05;4.62;;;;;;;11.93;100.00;97661.56;4253974;33;20056;-73
2022/09/29 10:05:48;;;;;;;7.32;5.35;;;;;;;12.25;100.00;97641.13;4268651;33;20071;-72
2022/09/29 10:08:25;;;;;;;7.97;5.12;;;;;;;12.55;100.00;97644.41;4261649;33;20122;-73
2022/09/29 10:10:53;;;;;;;5.78;4.95;;;;;;;12.77;100.00;97680.78;4266081;33;20038;-73
2022/09/29 10:13:20;;;;;;;8.02;4.53;;;;;;;13.24;100.00;97676.94;4267966;33;20176;-72
2022/09/29 10:15:52;;;;;;;4.87;4.40;;;;;;;13.32;100.00;97640.28;4267137;33;20096;-73
2022/09/29 10:18:29;;;;;;;3.70;3.40;;;;;;;12.16;100.00;97653.69;4294433;33;20418;-75
2022/09/29 10:20:56;;;;;;;3.35;3.12;;;;;;;12.01;100.00;97606.16;4296150;33;20084;-72
2022/09/29 10:23:26;;;;;;;2.97;2.75;;;;;;;12.41;100.00;97648.97;4309729;33;20110;-74
2022/09/29 10:25:57;;;;;;;2.75;2.40;;;;;;;13.19;100.00;97657.31;4307458;33;20040;-72
2022/09/29 10:28:25;;;;;;;;;;;;;;;13.26;100.00;97657.72;4304082;33;20412;-72
2022/09/29 10:30:54;;;;;;;2.72;2.40;;;;;;;13.80;100.00;97699.37;4304342;33;20361;-71
2022/09/29 10:33:27;;;;;;;2.65;2.45;;;;;;;13.80;100.00;97693.13;4375181;32;20356;-71
2022/09/29 10:36:09;;;;;;;3.28;2.92;;;;;;;13.18;100.00;97644.88;4428091;32;20378;-74
2022/09/29 10:38:36;;;;;;;2.47;2.28;;;;;;;13.95;100.00;97689.31;4430495;32;20055;-71
2022/09/29 10:41:05;;;;;;;3.15;2.62;;;;;;;13.75;100.00;97658.91;4429338;32;20071;-70
2022/09/29 10:43:40;;;;;;;2.92;2.72;;;;;;;14.28;100.00;97697.22;4396686;32;20082;-71
2022/09/29 10:46:49;;;;;;;5.05;4.03;;;;;;;14.43;100.00;97705.00;4397359;32;20076;-71
2022/09/29 10:49:21;;;;;;;1.80;1.70;;;;;;;13.50;100.00;97710.78;4365326;32;20363;-77
2022/09/29 10:51:59;;;;;;;2.92;2.67;;;;;;;13.19;100.00;97711.38;4398065;32;20042;-71
2022/09/29 10:54:28;;;;;;;5.03;1.80;;;;;;;13.72;100.00;97702.78;4399004;32;20036;-70
2022/09/29 10:56:56;;;;;;;2.42;2.20;;;;;;;13.50;100.00;97662.13;4398946;32;20050;-71
2022/09/29 10:59:24;;;;;;;2.45;2.25;;;;;;;14.47;100.00;97706.00;4397629;32;20431;-75
2022/09/29 11:01:57;;;;;;;1.80;1.70;;;;;;;13.99;100.00;97676.75;4398907;32;20178;-70
2022/09/29 11:04:29;;;;;;;2.05;1.95;;;;;;;15.16;100.00;97715.69;4398053;32;20376;-72
2022/09/29 11:07:05;;;;;;;1.60;1.50;;;;;;;14.87;100.00;97692.56;4367885;32;20074;-71
2022/09/29 11:09:43;;;;;;;1.80;1.70;;;;;;;14.90;100.00;97701.97;4365743;32;20099;-70
2022/09/29 11:12:33;;;;;;;2.37;2.00;;;;;;;15.32;100.00;97707.94;4365272;32;20361;-71
2022/09/29 11:15:01;;;;;;;2.25;2.03;;;;;;;15.93;100.00;97705.41;4365040;32;21065;-69
2022/09/29 11:17:28;;;;;;;1.95;1.87;;;;;;;15.93;99.67;97677.47;4371255;32;20031;-69
2022/09/29 11:20:01;;;;;;;1.92;1.77;;;;;;;15.01;100.00;97716.06;4373652;32;20093;-69
2022/09/29 11:22:40;;;;;;;2.37;2.20;;;;;;;14.59;100.00;97712.75;4368374;32;20105;-71
2022/09/29 11:25:21;;;;;;;2.00;1.90;;;;;;;14.71;100.00;97715.75;4372934;32;20284;-69
2022/09/29 11:28:03;;;;;;;1.80;1.70;;;;;;;14.50;100.00;97691.84;4377684;32;20358;-69
2022/09/29 11:30:43;;;;;;;2.28;2.00;;;;;;;15.10;100.00;97725.06;4373495;32;20469;-69
2022/09/29 11:33:27;;;;;;;5.43;2.12;;;;;;;15.71;100.00;97711.72;4344963;32;20110;-70
2022/09/29 11:36:12;;;;;;;2.30;2.20;;;;;;;15.72;100.00;97726.09;4329135;33;20040;-70
2022/09/29 11:39:14;;;;;;;1.95;1.75;;;;;;;15.25;100.00;97724.66;4346495;32;20057;-70
2022/09/29 11:41:49;;;;;;;1.63;1.57;;;;;;;15.63;100.00;97726.06;4380352;32;20438;-69
2022/09/29 11:44:44;;;;;;;1.70;1.60;;;;;;;15.87;100.00;97722.94;4381349;32;20221;-71
2022/09/29 11:47:39;;;;;;;1.73;1.62;;;;;;;14.93;100.00;97719.53;4366904;32;20397;-71